createdAt,value
2022-08-11T00:01:06.861Z,147505.19
2022-08-11T00:03:43.104Z,147385.47
2022-08-11T00:06:14.103Z,147419.63
2022-08-11T00:08:42.497Z,147489.28
2022-08-11T00:11:12.553Z,147478.25
2022-08-11T00:13:45.431Z,147461.16
2022-08-11T00:16:20.037Z,147464.81
2022-08-11T00:18:53.743Z,147457.53
2022-08-11T00:21:54.636Z,147447.72
2022-08-11T00:24:10.696Z,147435.53
2022-08-11T00:26:37.852Z,147420.88
2022-08-11T00:29:12.267Z,147409.88
2022-08-11T00:31:46.442Z,147422.09
2022-08-11T00:34:15.829Z,147392.75
2022-08-11T00:36:50.817Z,147402.56
2022-08-11T00:39:21.151Z,147401.31
2022-08-11T00:42:14.441Z,147397.66
2022-08-11T00:45:09.835Z,147387.88
2022-08-11T00:48:05.021Z,147375.72
2022-08-11T00:50:45.342Z,147385.47
2022-08-11T00:53:46.964Z,147390.34
2022-08-11T00:57:36.915Z,147361.03
2022-08-11T01:00:20.627Z,147348.84
2022-08-11T01:03:13.417Z,147328.06
2022-08-11T01:05:49.338Z,147331.72
2022-08-11T01:08:47.606Z,147331.72
2022-08-11T01:11:34.392Z,147330.53
2022-08-11T01:14:36.293Z,147331.72
2022-08-11T01:17:26.133Z,147320.78
2022-08-11T01:20:46.117Z,147312.22
2022-08-11T01:23:24.242Z,147295.13
2022-08-11T01:26:18.282Z,147271.94
2022-08-11T01:29:08.693Z,147256.06
2022-08-11T01:31:41.716Z,147238.94
2022-08-11T01:34:58.286Z,147226.72
2022-08-11T01:37:47.810Z,147212.06
2022-08-11T01:40:23.618Z,147214.50
2022-08-11T01:43:28.626Z,147182.81
2022-08-11T01:45:58.381Z,147187.69
2022-08-11T01:48:28.478Z,147194.97
2022-08-11T01:51:01.164Z,147173.00
2022-08-11T01:53:40.063Z,147174.25
2022-08-11T01:56:33.652Z,147160.84
2022-08-11T01:59:18.919Z,147131.53
2022-08-11T02:01:53.550Z,147107.13
2022-08-11T02:04:36.135Z,147109.59
2022-08-11T02:07:20.050Z,147113.22
2022-08-11T02:10:22.305Z,147113.22
2022-08-11T02:13:37.204Z,147014.44
2022-08-11T02:16:13.603Z,147103.47
2022-08-11T02:19:07.496Z,147048.56
2022-08-11T02:22:09.456Z,147070.53
2022-08-11T02:24:54.250Z,147068.06
2022-08-11T02:27:27.233Z,147046.16
2022-08-11T02:30:09.932Z,147048.56
2022-08-11T02:33:06.646Z,147014.44
2022-08-11T02:35:58.111Z,147055.91
2022-08-11T02:38:28.323Z,147044.91
2022-08-11T02:41:40.174Z,147032.72
2022-08-11T02:44:07.595Z,147030.28
2022-08-11T02:46:45.088Z,147031.47
2022-08-11T02:49:44.891Z,147026.59
2022-08-11T02:52:31.355Z,147024.19
2022-08-11T02:55:55.691Z,147036.41
2022-08-11T02:58:22.097Z,147011.97
2022-08-11T03:01:09.083Z,147007.09
2022-08-11T03:03:53.365Z,147009.56
2022-08-11T03:06:23.143Z,147002.22
2022-08-11T03:08:59.088Z,146971.66
2022-08-11T03:12:14.121Z,146960.72
2022-08-11T03:15:18.516Z,146970.47
2022-08-11T03:18:17.018Z,146960.72
2022-08-11T03:21:16.037Z,146963.16
2022-08-11T03:24:06.696Z,146938.75
2022-08-11T03:26:33.643Z,146919.25
2022-08-11T03:29:40.869Z,146914.38
2022-08-11T03:32:21.646Z,146902.16
2022-08-11T03:34:52.034Z,146933.88
2022-08-11T03:37:46.934Z,146919.25
2022-08-11T03:40:59.305Z,146924.13
2022-08-11T03:43:35.341Z,146911.91
2022-08-11T03:46:12.314Z,146910.72
2022-08-11T03:48:45.330Z,146866.84
2022-08-11T03:51:22.312Z,146870.47
2022-08-11T03:53:56.499Z,146866.84
2022-08-11T03:56:42.062Z,146885.13
2022-08-11T03:59:30.358Z,146872.91
2022-08-11T04:01:57.422Z,146871.72
2022-08-11T04:04:56.568Z,146866.84
2022-08-11T04:07:45.619Z,146871.72
2022-08-11T04:10:49.890Z,146866.84
2022-08-11T04:13:35.607Z,146858.31
2022-08-11T04:16:21.465Z,146897.28
2022-08-11T04:19:11.052Z,146875.34
2022-08-11T04:21:51.574Z,146902.16
2022-08-11T04:24:39.494Z,146885.13
2022-08-11T04:27:44.631Z,146863.19
2022-08-11T04:30:45.840Z,146886.34
2022-08-11T04:33:41.475Z,146875.34
2022-08-11T04:36:43.475Z,146880.22
2022-08-11T04:39:41.307Z,146887.53
2022-08-11T04:42:39.751Z,146872.91
2022-08-11T04:45:51.850Z,146909.50
2022-08-11T04:48:55.953Z,146926.59
2022-08-11T04:52:03.314Z,146933.88
2022-08-11T04:55:27.031Z,146946.09
2022-08-11T04:58:22.796Z,146949.75
2022-08-11T05:01:40.203Z,146955.84
2022-08-11T05:04:40.157Z,146963.16
2022-08-11T05:07:19.301Z,146955.84
2022-08-11T05:10:13.950Z,146953.38
2022-08-11T05:12:43.638Z,146979.00
2022-08-11T05:15:42.394Z,147001.00
2022-08-11T05:18:41.347Z,146992.47
2022-08-11T05:21:30.820Z,146993.69
2022-08-11T05:24:38.908Z,147059.56
2022-08-11T05:27:27.480Z,147066.88
2022-08-11T05:30:34.490Z,147087.63
2022-08-11T05:33:29.185Z,147107.13
2022-08-11T05:36:17.845Z,147141.28
2022-08-11T05:39:15.177Z,147080.28
2022-08-11T05:42:01.477Z,147192.56
2022-08-11T05:44:48.576Z,147245.03
2022-08-11T05:47:45.239Z,147263.38
2022-08-11T05:50:33.304Z,147290.22
2022-08-11T05:53:21.275Z,147339.06
2022-08-11T05:56:09.949Z,147361.03
2022-08-11T05:58:42.972Z,147253.63
2022-08-11T06:01:12.967Z,147397.66
2022-08-11T06:04:14.043Z,147375.72
2022-08-11T06:07:03.934Z,147448.97
2022-08-11T06:09:34.041Z,147468.50
2022-08-11T06:12:08.248Z,147514.94
2022-08-11T06:14:43.004Z,147544.25
2022-08-11T06:17:10.791Z,147568.69
2022-08-11T06:19:42.650Z,147602.88
2022-08-11T06:22:12.298Z,147555.25
2022-08-11T06:24:50.901Z,147690.84
2022-08-11T06:27:22.350Z,147695.78
2022-08-11T06:29:55.047Z,147661.53
2022-08-11T06:32:32.854Z,147676.19
2022-08-11T06:35:23.569Z,147802.13
2022-08-11T06:38:12.610Z,147849.78
2022-08-11T06:41:19.679Z,147887.69
2022-08-11T06:44:05.922Z,147912.16
2022-08-11T06:46:38.736Z,147953.78
2022-08-11T06:49:28.212Z,147972.13
2022-08-11T06:52:01.648Z,148003.91
2022-08-11T06:54:32.519Z,148007.59
2022-08-11T06:57:29.734Z,148049.16
2022-08-11T07:00:16.884Z,148104.19
2022-08-11T07:02:54.542Z,148116.41
2022-08-11T07:05:28.756Z,148123.75
2022-08-11T07:09:02.049Z,148068.72
2022-08-11T07:12:42.041Z,148221.66
2022-08-11T07:16:13.231Z,148307.34
2022-08-11T07:18:44.605Z,148290.19
2022-08-11T07:22:01.017Z,148421.22
2022-08-11T07:25:32.874Z,148446.91
2022-08-11T07:28:28.116Z,148491.00
2022-08-11T07:31:04.822Z,148552.25
2022-08-11T07:34:08.270Z,148611.06
2022-08-11T07:36:31.108Z,148620.84
2022-08-11T07:38:59.593Z,148677.19
2022-08-11T07:41:28.585Z,148723.72
2022-08-11T07:44:08.867Z,148745.81
2022-08-11T07:46:59.721Z,148809.53
2022-08-11T07:49:49.840Z,148873.28
2022-08-11T07:52:30.324Z,148895.34
2022-08-11T07:55:06.059Z,148949.31
2022-08-11T07:58:15.613Z,148981.16
2022-08-11T08:01:22.459Z,149031.41
2022-08-11T08:04:10.131Z,149057.19
2022-08-11T08:06:57.550Z,149062.06
2022-08-11T08:09:43.703Z,149113.63
2022-08-11T08:12:30.696Z,149044.91
2022-08-11T08:15:16.984Z,149154.09
2022-08-11T08:18:10.026Z,149159.00
2022-08-11T08:20:47.365Z,149214.19
2022-08-11T08:23:15.082Z,149156.56
2022-08-11T08:25:45.506Z,149216.66
2022-08-11T08:28:19.599Z,149206.84
2022-08-11T08:30:52.554Z,149271.91
2022-08-11T08:33:24.830Z,149300.09
2022-08-11T08:36:15.250Z,149292.72
2022-08-11T08:38:46.990Z,149332.00
2022-08-11T08:41:20.869Z,149343.03
2022-08-11T08:43:53.584Z,149373.72
2022-08-11T08:46:36.510Z,149397.00
2022-08-11T08:49:04.804Z,149424.06
2022-08-11T08:51:58.748Z,149430.19
2022-08-11T08:54:37.045Z,149447.38
2022-08-11T08:57:06.773Z,149481.72
2022-08-11T08:59:47.388Z,149449.81
2022-08-11T09:02:19.791Z,149500.13
2022-08-11T09:05:03.746Z,149509.94
2022-08-11T09:07:39.486Z,149452.28
2022-08-11T09:10:10.695Z,149540.63
2022-08-11T09:12:41.533Z,149574.97
2022-08-11T09:15:11.809Z,149594.69
2022-08-11T09:17:46.616Z,149568.84
2022-08-11T09:20:24.592Z,149543.09
2022-08-11T09:26:35.126Z,149615.53
2022-08-11T09:29:04.564Z,149632.72
2022-08-11T09:31:39.650Z,149662.19
2022-08-11T09:34:10.217Z,149635.22
2022-08-11T09:36:58.224Z,149633.94
2022-08-11T09:39:45.819Z,149646.25
2022-08-11T09:42:16.416Z,149669.56
2022-08-11T09:44:50.651Z,149663.44
2022-08-11T09:47:24.539Z,149705.19
2022-08-11T09:49:56.115Z,149679.38
2022-08-11T09:52:24.644Z,149695.38
2022-08-11T09:54:53.368Z,149660.97
2022-08-11T09:57:43.958Z,149672.03
2022-08-11T10:00:14.367Z,149641.34
2022-08-11T10:02:47.135Z,149675.69
2022-08-11T10:05:38.034Z,149700.28
2022-08-11T10:08:07.272Z,149656.06
2022-08-11T10:10:36.755Z,149732.19
2022-08-11T10:14:31.820Z,149774.00
2022-08-11T10:16:15.647Z,149728.50
2022-08-11T10:18:52.056Z,149809.56
2022-08-11T10:22:16.485Z,149818.19
2022-08-11T10:25:03.658Z,149783.81
2022-08-11T10:27:40.367Z,149841.50
2022-08-11T10:30:37.145Z,149869.75
2022-08-11T10:33:36.737Z,149874.69
2022-08-11T10:36:06.156Z,149874.69
2022-08-11T10:38:46.911Z,149869.75
2022-08-11T10:41:33.518Z,149866.09
2022-08-11T10:44:04.043Z,149905.44
2022-08-11T10:46:50.505Z,149907.91
2022-08-11T10:49:20.274Z,149899.31
2022-08-11T10:52:06.515Z,149916.50
2022-08-11T10:54:54.559Z,149867.31
2022-08-11T10:57:41.763Z,149894.38
2022-08-11T11:00:15.080Z,149910.34
2022-08-11T11:02:46.657Z,149950.88
2022-08-11T11:05:34.893Z,149931.25
2022-08-11T11:08:31.219Z,150002.47
2022-08-11T11:10:59.435Z,150070.09
2022-08-11T11:13:53.176Z,150009.88
2022-08-11T11:16:42.686Z,150050.47
2022-08-11T11:19:11.570Z,150025.81
2022-08-11T11:21:39.513Z,150033.19
2022-08-11T11:24:19.315Z,150047.97
2022-08-11T11:26:55.910Z,150076.25
2022-08-11T11:29:46.143Z,150084.84
2022-08-11T11:32:13.178Z,150039.38
2022-08-11T11:34:48.562Z,150030.72
2022-08-11T11:37:23.743Z,150054.13
2022-08-11T11:39:52.912Z,150065.19
2022-08-11T11:42:21.830Z,150109.41
2022-08-11T11:44:49.510Z,150135.22
2022-08-11T11:47:21.771Z,150145.06
2022-08-11T11:49:50.150Z,150081.16
2022-08-11T11:52:20.357Z,150152.44
2022-08-11T11:54:50.220Z,150194.28
2022-08-11T11:57:38.621Z,150213.94
2022-08-11T12:00:33.046Z,150120.50
2022-08-11T12:03:08.212Z,150167.19
2022-08-11T12:05:37.320Z,150136.44
2022-08-11T12:08:15.925Z,150238.50
2022-08-11T12:11:13.112Z,150233.59
2022-08-11T12:13:42.081Z,150284.00
2022-08-11T12:16:33.612Z,150228.69
2022-08-11T12:19:16.941Z,150183.16
2022-08-11T12:22:03.126Z,150168.41
2022-08-11T12:24:51.252Z,150206.59
2022-08-11T12:27:25.468Z,150233.59
2022-08-11T12:29:55.811Z,150207.81
2022-08-11T12:32:27.276Z,150255.72
2022-08-11T12:34:56.691Z,150265.53
2022-08-11T12:37:30.139Z,150226.25
2022-08-11T12:40:43.660Z,150325.78
2022-08-11T12:43:38.399Z,150298.78
2022-08-11T12:46:31.765Z,150391.03
2022-08-11T12:49:19.008Z,150354.16
2022-08-11T12:52:14.799Z,150349.19
2022-08-11T12:54:46.680Z,150260.63
2022-08-11T12:57:46.055Z,150347.97
2022-08-11T13:00:33.537Z,150349.19
2022-08-11T13:03:20.466Z,150354.16
2022-08-11T13:05:49.650Z,150389.78
2022-08-11T13:08:18.202Z,150371.31
2022-08-11T13:11:05.586Z,150388.56
2022-08-11T13:13:53.954Z,150309.81
2022-08-11T13:16:23.432Z,150351.66
2022-08-11T13:18:53.438Z,150270.47
2022-08-11T13:21:21.901Z,150392.25
2022-08-11T13:24:01.473Z,150366.41
2022-08-11T13:26:46.862Z,150300.00
2022-08-11T13:29:25.651Z,150382.41
2022-08-11T13:31:56.015Z,150447.59
2022-08-11T13:34:25.293Z,150290.16
2022-08-11T13:36:55.721Z,150349.19
2022-08-11T13:39:32.115Z,150356.59
2022-08-11T13:42:01.652Z,150388.56
2022-08-11T13:44:31.454Z,150402.09
2022-08-11T13:47:04.207Z,150452.50
2022-08-11T13:49:34.828Z,150471.00
2022-08-11T13:52:03.437Z,150399.59
2022-08-11T13:54:34.843Z,150445.09
2022-08-11T13:57:08.256Z,150467.25
2022-08-11T13:59:43.853Z,150402.09
2022-08-11T14:02:29.292Z,150507.88
2022-08-11T14:05:25.029Z,150509.09
2022-08-11T14:07:58.119Z,150477.13
2022-08-11T14:10:30.063Z,150425.44
2022-08-11T14:13:18.717Z,150543.56
2022-08-11T14:15:48.472Z,150484.53
2022-08-11T14:18:30.848Z,150466.03
2022-08-11T14:21:19.285Z,150526.34
2022-08-11T14:23:50.254Z,150506.66
2022-08-11T14:26:29.450Z,150478.34
2022-08-11T14:29:05.990Z,150580.47
2022-08-11T14:31:35.693Z,150603.84
2022-08-11T14:34:06.419Z,150622.34
2022-08-11T14:36:39.757Z,150531.25
2022-08-11T14:39:18.206Z,150478.34
2022-08-11T14:42:14.825Z,150418.03
2022-08-11T14:45:03.270Z,150574.28
2022-08-11T14:47:35.264Z,150539.88
2022-08-11T14:50:11.567Z,150522.63
2022-08-11T14:52:45.017Z,150471.00
2022-08-11T14:55:32.454Z,150499.28
2022-08-11T14:58:01.644Z,150450.03
2022-08-11T15:00:29.283Z,150546.00
2022-08-11T15:03:12.927Z,150555.84
2022-08-11T15:05:58.415Z,150536.16
2022-08-11T15:08:47.642Z,150555.84
2022-08-11T15:11:36.158Z,150595.22
2022-08-11T15:14:06.624Z,150610.03
2022-08-11T15:16:54.960Z,150579.22
2022-08-11T15:19:24.971Z,150618.63
2022-08-11T15:22:10.607Z,150718.25
2022-08-11T15:24:38.307Z,150633.38
2022-08-11T15:27:42.990Z,150728.13
2022-08-11T15:30:33.081Z,150783.56
2022-08-11T15:33:30.676Z,150792.13
2022-08-11T15:36:18.922Z,150843.84
2022-08-11T15:39:02.242Z,150885.75
2022-08-11T15:42:12.478Z,150943.56
2022-08-11T15:45:03.725Z,150952.19
2022-08-11T15:47:38.983Z,151065.50
2022-08-11T15:50:14.075Z,150942.34
2022-08-11T15:52:49.493Z,151018.69
2022-08-11T15:55:18.413Z,151123.38
2022-08-11T15:58:18.324Z,151109.81
2022-08-11T16:01:08.855Z,151156.66
2022-08-11T16:04:09.818Z,151395.69
2022-08-11T16:06:49.633Z,151368.53
2022-08-11T16:10:07.613Z,151464.69
2022-08-11T16:13:06.185Z,151664.41
2022-08-11T16:15:56.867Z,151552.22
2022-08-11T16:18:40.489Z,151685.41
2022-08-11T16:21:33.917Z,151812.41
2022-08-11T16:24:03.490Z,151745.78
2022-08-11T16:27:07.523Z,151698.97
2022-08-11T16:29:21.594Z,151689.09
2022-08-11T16:32:11.388Z,151776.63
2022-08-11T16:34:58.985Z,151674.28
2022-08-11T16:37:46.269Z,151621.25
2022-08-11T16:40:15.079Z,151499.19
2022-08-11T16:43:10.480Z,151570.72
2022-08-11T16:45:59.710Z,151644.72
2022-08-11T16:48:38.939Z,151677.97
2022-08-11T16:51:08.435Z,151888.91
2022-08-11T16:53:59.664Z,151849.38
2022-08-11T16:56:34.948Z,151992.50
2022-08-11T16:59:17.681Z,151733.44
2022-08-11T17:01:53.616Z,151802.53
2022-08-11T17:04:48.902Z,151953.03
2022-08-11T17:07:41.512Z,151973.97
2022-08-11T17:11:04.115Z,151967.81
2022-08-11T17:13:42.331Z,151940.69
2022-08-11T17:16:12.720Z,151997.44
2022-08-11T17:18:47.713Z,151934.53
2022-08-11T17:21:27.325Z,151819.81
2022-08-11T17:23:58.764Z,151995.00
2022-08-11T17:26:59.395Z,151854.31
2022-08-11T17:29:54.347Z,151965.34
2022-08-11T17:32:56.768Z,151853.09
2022-08-11T17:35:38.507Z,151865.44
2022-08-11T17:38:10.099Z,151814.88
2022-08-11T17:40:40.157Z,151533.75
2022-08-11T17:43:27.945Z,151118.44
2022-08-11T17:46:15.422Z,150800.75
2022-08-11T17:48:47.793Z,150536.16
2022-08-11T17:51:38.240Z,150394.69
2022-08-11T17:54:26.363Z,150334.44
2022-08-11T17:57:20.526Z,150245.91
2022-08-11T17:59:54.105Z,150206.59
2022-08-11T18:02:54.078Z,150174.56
2022-08-11T18:05:35.803Z,150167.19
2022-08-11T18:08:25.456Z,150141.34
2022-08-11T18:11:12.717Z,150083.63
2022-08-11T18:14:06.570Z,150020.91
2022-08-11T18:16:52.238Z,150044.28
2022-08-11T18:19:37.906Z,150029.50
2022-08-11T18:22:46.647Z,149963.19
2022-08-11T18:25:35.477Z,149957.00
2022-08-11T18:28:25.337Z,149923.84
2022-08-11T18:31:15.485Z,149906.63
2022-08-11T18:34:10.846Z,149842.75
2022-08-11T18:37:19.420Z,149812.06
2022-08-11T18:40:20.856Z,149816.97
2022-08-11T18:43:09.509Z,149776.44
2022-08-11T18:46:06.939Z,149750.66
2022-08-11T18:49:00.595Z,149641.34
2022-08-11T18:51:47.079Z,149663.44
2022-08-11T18:54:35.914Z,149616.81
2022-08-11T18:57:25.435Z,149562.72
2022-08-11T19:00:13.166Z,149519.75
2022-08-11T19:02:59.836Z,149496.44
2022-08-11T19:06:37.009Z,149470.69
2022-08-11T19:09:05.019Z,149431.41
2022-08-11T19:11:53.314Z,149390.91
2022-08-11T19:14:40.545Z,149354.09
2022-08-11T19:17:44.173Z,149322.19
2022-08-11T19:20:37.930Z,149297.63
2022-08-11T19:23:25.703Z,149238.69
2022-08-11T19:26:12.225Z,149201.91
2022-08-11T19:29:00.262Z,149178.59
2022-08-11T19:31:47.436Z,149172.47
2022-08-11T19:34:36.265Z,149160.22
2022-08-11T19:37:25.421Z,149162.69
2022-08-11T19:40:13.569Z,149133.25
2022-08-11T19:43:02.343Z,149125.88
2022-08-11T19:45:52.181Z,149089.09
2022-08-11T19:48:40.794Z,149071.88
2022-08-11T19:51:28.606Z,149086.63
2022-08-11T19:54:15.330Z,149101.38
2022-08-11T19:57:03.195Z,149068.19
2022-08-11T19:59:50.667Z,149062.06
2022-08-11T20:02:39.266Z,149035.09
2022-08-11T20:05:26.319Z,149040.00
2022-08-11T20:08:14.733Z,148987.31
2022-08-11T20:11:03.604Z,148973.81
2022-08-11T20:13:50.220Z,148943.16
2022-08-11T20:16:38.898Z,148944.38
2022-08-11T20:19:54.949Z,148910.09
2022-08-11T20:22:34.748Z,148889.19
2022-08-11T20:25:23.890Z,148857.38
2022-08-11T20:28:12.205Z,148809.53
2022-08-11T20:31:02.158Z,148726.25
2022-08-11T20:33:49.290Z,148680.84
2022-08-11T20:36:35.619Z,148760.50
2022-08-11T20:39:22.280Z,148726.25
2022-08-11T20:42:09.762Z,148726.25
2022-08-11T20:44:57.953Z,148691.91
2022-08-11T20:47:59.340Z,148618.41
2022-08-11T20:50:47.593Z,148652.69
2022-08-11T20:53:39.131Z,148646.59
2022-08-11T20:56:28.468Z,148615.94
2022-08-11T20:59:21.567Z,148598.78
2022-08-11T21:02:10.539Z,148520.38
2022-08-11T21:05:00.330Z,148543.69
2022-08-11T21:07:56.761Z,148515.47
2022-08-11T21:10:50.579Z,148456.69
2022-08-11T21:13:41.563Z,148491.00
2022-08-11T21:16:32.096Z,148473.84
2022-08-11T21:19:59.984Z,148449.38
2022-08-11T21:22:59.129Z,148439.59
2022-08-11T21:26:02.102Z,148422.44
2022-08-11T21:28:50.229Z,148400.41
2022-08-11T21:31:37.486Z,148346.53
2022-08-11T21:34:24.836Z,148326.91
2022-08-11T21:37:11.622Z,148309.78
2022-08-11T21:40:00.637Z,148312.22
2022-08-11T21:42:47.673Z,148286.53
2022-08-11T21:45:35.431Z,148240.03
2022-08-11T21:48:23.303Z,148109.09
2022-08-11T21:51:09.042Z,148197.22
2022-08-11T21:53:55.751Z,148220.47
2022-08-11T21:56:45.110Z,148158.03
2022-08-11T21:59:35.370Z,148143.31
2022-08-11T22:02:21.502Z,148123.75
2022-08-11T22:05:07.550Z,148140.91
2022-08-11T22:07:52.916Z,148113.97
2022-08-11T22:10:42.297Z,148106.63
2022-08-11T22:13:31.884Z,148062.63
2022-08-11T22:16:18.764Z,148045.50
2022-08-11T22:19:06.168Z,148057.69
2022-08-11T22:22:01.397Z,148039.34
2022-08-11T22:24:51.661Z,148002.66
2022-08-11T22:27:38.585Z,147974.53
2022-08-11T22:30:30.006Z,147984.31
2022-08-11T22:33:24.449Z,147947.63
2022-08-11T22:36:13.955Z,147915.84
2022-08-11T22:39:01.141Z,147873.00
2022-08-11T22:41:47.473Z,147864.44
2022-08-11T22:44:33.058Z,147862.03
2022-08-11T22:47:21.295Z,147832.66
2022-08-11T22:50:15.789Z,147827.78
2022-08-11T22:53:02.613Z,147805.81
2022-08-11T22:55:48.849Z,147696.97
2022-08-11T22:58:36.036Z,147761.78
2022-08-11T23:01:22.270Z,147732.47
2022-08-11T23:04:08.240Z,147712.84
2022-08-11T23:06:54.382Z,147676.19
2022-08-11T23:09:42.605Z,147687.22
2022-08-11T23:12:28.333Z,147683.53
2022-08-11T23:15:14.225Z,147557.69
2022-08-11T23:18:00.464Z,147655.44
2022-08-11T23:20:55.102Z,147639.53
2022-08-11T23:23:42.449Z,147623.66
2022-08-11T23:26:30.060Z,147595.59
2022-08-11T23:29:16.651Z,147607.75
2022-08-11T23:32:04.701Z,147593.13
2022-08-11T23:35:04.136Z,147499.09
2022-08-11T23:38:02.885Z,147607.75
2022-08-11T23:40:48.582Z,147582.16
2022-08-11T23:43:42.398Z,147560.16
2022-08-11T23:46:28.502Z,147573.59
2022-08-11T23:49:17.186Z,147539.34
2022-08-11T23:52:03.810Z,147469.69
2022-08-11T23:54:50.567Z,147444.09
2022-08-11T23:57:36.982Z,147517.41
